Time;durP1;ratioP1;P1;durP2;ratioP2;P2;SDS_P1;SDS_P2;PMS_P1;PMS_P2;Temp;Humidity;BMP_temperature;BMP_pressure;BME280_temperature;BME280_humidity;BME280_pressure;Samples;Min_cycle;Max_cycle;Signal;HPM_P1;HPM_P2
2023/04/05 00:00:08;;;;;;;8.85;4.38;;;;;;;-146.25;84.85;52246.53;2071387;28;37275;-68
2023/04/05 00:01:12;;;;;;;7.60;4.30;;;;;;;-146.25;84.85;52287.09;2080958;28;20195;-69
2023/04/05 00:02:17;;;;;;;5.53;3.83;;;;;;;-146.25;85.41;52254.66;2070872;28;34543;-68
2023/04/05 00:03:19;;;;;;;6.93;4.15;;;;;;;-146.25;84.88;52262.75;2072625;28;33559;-68
2023/04/05 00:04:22;;;;;;;6.22;4.00;;;;;;;-146.25;84.59;52236.41;2080770;28;20030;-68
2023/04/05 00:05:29;;;;;;;8.90;3.90;;;;;;;-146.25;84.47;52248.56;2080184;28;35551;-68
2023/04/05 00:06:33;;;;;;;11.15;4.18;;;;;;;-146.25;84.94;52268.84;2071991;28;34281;-68
2023/04/05 00:07:35;;;;;;;8.93;3.85;;;;;;;-146.25;85.04;52242.50;2072293;28;38979;-69
2023/04/05 00:08:36;;;;;;;7.18;3.63;;;;;;;-146.25;85.52;52242.50;2079958;28;37014;-69
2023/04/05 00:09:38;;;;;;;7.68;4.13;;;;;;;-146.25;85.51;52283.03;2080256;28;35421;-68
2023/04/05 00:10:40;;;;;;;8.32;3.95;;;;;;;-146.25;86.26;52246.53;2080383;28;35381;-69
2023/04/05 00:11:41;;;;;;;10.05;4.72;;;;;;;-146.25;86.49;52248.56;2080061;28;36910;-69
2023/04/05 00:12:43;;;;;;;8.25;4.40;;;;;;;-146.25;86.72;52238.44;2080780;28;20875;-69
2023/04/05 00:13:45;;;;;;;9.50;4.45;;;;;;;-146.25;87.14;52283.03;2080197;28;35211;-69
2023/04/05 00:14:47;;;;;;;8.70;4.30;;;;;;;-146.25;86.80;52234.38;2071075;28;37040;-69
2023/04/05 00:15:49;;;;;;;10.02;4.47;;;;;;;-146.25;86.89;52254.66;2072231;28;20252;-69
2023/04/05 00:16:51;;;;;;;6.82;4.10;;;;;;;-146.25;86.10;52313.44;2080098;28;40124;-69
2023/04/05 00:17:54;;;;;;;7.85;4.18;;;;;;;-146.25;86.34;52266.81;2081149;28;20908;-69
2023/04/05 00:18:59;;;;;;;7.65;4.10;;;;;;;-146.25;86.74;52256.69;2071220;28;33920;-69
2023/04/05 00:20:06;;;;;;;5.88;4.20;;;;;;;-146.25;86.63;52252.63;2071764;28;36177;-69
2023/04/05 00:21:07;;;;;;;9.38;4.30;;;;;;;-146.25;86.94;52256.69;2080099;28;34761;-69
2023/04/05 00:22:10;;;;;;;8.30;5.05;;;;;;;-146.25;88.43;52266.81;2080402;28;33750;-69
2023/04/05 00:23:11;;;;;;;7.88;4.70;;;;;;;-146.25;88.01;52262.75;2079951;28;35848;-69
2023/04/05 00:24:14;;;;;;;8.95;4.35;;;;;;;-146.25;88.33;52246.53;2079896;28;38399;-68
2023/04/05 00:25:17;;;;;;;7.30;4.20;;;;;;;-146.25;88.24;52254.66;2071666;28;33542;-69
2023/04/05 00:26:20;;;;;;;7.13;4.15;;;;;;;-146.25;88.19;52307.38;2071984;28;35643;-68
2023/04/05 00:27:26;;;;;;;6.70;3.70;;;;;;;-146.25;88.80;52262.75;2071804;28;20784;-69
2023/04/05 00:28:31;;;;;;;9.10;4.75;;;;;;;-146.25;89.01;52248.56;2063988;28;20039;-69
2023/04/05 00:29:33;;;;;;;9.30;4.30;;;;;;;-146.25;88.79;52254.66;2071087;28;34393;-69
2023/04/05 00:30:39;;;;;;;8.63;4.28;;;;;;;-146.25;88.65;52256.69;2063865;28;20043;-69
2023/04/05 00:31:44;;;;;;;7.03;4.32;;;;;;;-146.25;88.63;52283.03;2072402;28;20128;-69
2023/04/05 00:32:49;;;;;;;6.90;4.07;;;;;;;-146.25;89.23;52218.16;2071452;28;20132;-69
2023/04/05 00:33:52;;;;;;;6.40;4.10;;;;;;;-146.25;88.83;52246.53;2064344;28;20035;-69
2023/04/05 00:34:53;;;;;;;8.07;4.90;;;;;;;-146.25;89.71;52289.13;2071931;28;20074;-69
2023/04/05 00:35:55;;;;;;;8.77;5.00;;;;;;;-146.25;89.95;52226.25;2080265;28;32648;-69
2023/04/05 00:36:57;;;;;;;7.22;4.95;;;;;;;-146.25;90.46;52270.88;2080368;28;23085;-69
2023/04/05 00:37:59;;;;;;;9.88;4.93;;;;;;;-146.25;91.11;52262.75;2071611;28;29085;-69
2023/04/05 00:39:00;;;;;;;8.35;5.18;;;;;;;-146.25;91.46;52270.88;2063176;28;31196;-69
2023/04/05 00:40:03;;;;;;;8.45;4.90;;;;;;;-146.25;90.66;52268.84;2071107;28;33799;-69
2023/04/05 00:41:04;;;;;;;7.82;4.70;;;;;;;-146.25;90.66;52283.03;2080814;28;20115;-69
2023/04/05 00:42:07;;;;;;;6.68;4.60;;;;;;;-146.25;90.73;52250.59;2080585;28;20073;-69
2023/04/05 00:43:09;;;;;;;5.72;4.13;;;;;;;-146.25;90.36;52240.47;2071350;28;29597;-69
2023/04/05 00:44:11;;;;;;;7.75;4.60;;;;;;;-146.25;90.97;52256.69;2072006;28;20085;-69
2023/04/05 00:45:13;;;;;;;8.75;4.72;;;;;;;-146.25;91.28;52266.81;2071799;28;20103;-70
2023/04/05 00:46:15;;;;;;;8.20;4.78;;;;;;;-146.25;91.31;52285.06;2071511;28;31758;-70
2023/04/05 00:47:17;;;;;;;8.40;4.75;;;;;;;-146.25;91.84;52234.38;2071829;28;28895;-69
2023/04/05 00:48:19;;;;;;;8.38;5.15;;;;;;;-146.25;91.86;52268.84;2055561;28;32153;-69
2023/04/05 00:49:21;;;;;;;9.23;4.85;;;;;;;-146.25;91.87;52250.59;2063400;28;31891;-70
2023/04/05 00:50:23;;;;;;;8.13;4.90;;;;;;;-146.25;91.44;52264.78;2079978;28;26347;-69
2023/04/05 00:51:25;;;;;;;7.35;4.25;;;;;;;-146.25;91.11;52248.56;2071026;28;35677;-70
2023/04/05 00:52:29;;;;;;;8.70;4.90;;;;;;;-146.25;91.06;52234.38;2071930;28;20038;-69
2023/04/05 00:53:36;;;;;;;7.70;4.32;;;;;;;-146.25;91.02;52266.81;2071164;28;33014;-69
2023/04/05 00:54:42;;;;;;;9.18;4.85;;;;;;;-146.25;91.24;52262.75;2064422;28;24589;-70
2023/04/05 00:55:46;;;;;;;10.68;5.20;;;;;;;-146.25;91.69;52232.34;2063907;28;25551;-70
2023/04/05 00:56:51;;;;;;;10.40;5.28;;;;;;;-146.25;91.93;52264.78;2056600;28;20948;-69
2023/04/05 00:57:54;;;;;;;8.35;5.57;;;;;;;-146.25;92.58;52266.81;2055731;28;28129;-70
2023/04/05 00:58:58;;;;;;;9.07;5.43;;;;;;;-146.25;92.47;52268.84;2064410;28;26901;-70
2023/04/05 01:00:06;;;;;;;8.18;5.13;;;;;;;-146.25;92.88;52260.72;2063541;28;20046;-70
2023/04/05 01:01:21;;;;;;;11.63;5.28;;;;;;;-146.25;92.74;52254.66;2057682;28;20154;-70
2023/04/05 01:02:31;;;;;;;8.73;5.45;;;;;;;-146.25;92.86;52285.06;2065978;28;20060;-70
2023/04/05 01:03:35;;;;;;;8.50;5.15;;;;;;;-146.25;92.51;52254.66;2073288;28;20042;-70
2023/04/05 01:04:40;;;;;;;11.25;5.43;;;;;;;-146.25;92.67;52250.59;2063045;28;25527;-69
2023/04/05 01:06:19;;;;;;;7.68;5.35;;;;;;;-146.25;92.96;52291.16;2047836;28;33982;-70
2023/04/05 01:07:47;;;;;;;8.30;4.88;;;;;;;-146.25;92.92;52268.84;2073710;28;28522;-69
2023/04/05 01:09:18;;;;;;;8.27;4.63;;;;;;;-146.25;92.44;52258.72;2080400;28;20042;-69
2023/04/05 01:10:26;;;;;;;9.38;5.00;;;;;;;-146.25;92.32;52246.53;2080554;28;20201;-70
2023/04/05 01:11:32;;;;;;;10.27;4.57;;;;;;;-146.25;91.54;52206.00;2081171;28;20057;-69
2023/04/05 01:12:35;;;;;;;9.20;5.18;;;;;;;-146.25;91.58;52254.66;2071470;28;20038;-69
2023/04/05 01:13:37;;;;;;;9.75;4.57;;;;;;;-146.25;91.10;52246.53;2055390;28;20054;-69
2023/04/05 01:14:49;;;;;;;8.05;4.85;;;;;;;-146.25;92.02;52283.03;2063790;28;25612;-70
2023/04/05 01:15:51;;;;;;;8.27;4.72;;;;;;;-146.25;91.64;52246.53;2063255;28;20942;-69
2023/04/05 01:16:56;;;;;;;9.05;4.57;;;;;;;-146.25;91.49;52244.50;2055188;28;24412;-69
2023/04/05 01:18:00;;;;;;;10.68;4.68;;;;;;;-146.25;92.02;52272.91;2071765;28;30502;-69
2023/04/05 01:19:03;;;;;;;7.00;4.30;;;;;;;-146.25;91.85;52268.84;2080147;28;20034;-69
2023/04/05 01:20:11;;;;;;;8.60;4.32;;;;;;;-146.25;92.18;52264.78;2071516;28;27048;-69
2023/04/05 01:21:32;;;;;;;7.32;4.50;;;;;;;-146.25;92.31;52254.66;2064470;28;30404;-69
2023/04/05 01:22:59;;;;;;;7.90;4.15;;;;;;;-146.25;92.05;52244.50;2066765;28;29067;-69
2023/04/05 01:24:11;;;;;;;8.85;4.57;;;;;;;-146.25;92.25;52234.38;2077164;28;20141;-70
2023/04/05 01:25:51;;;;;;;8.60;4.93;;;;;;;-146.25;92.61;52258.72;2071039;28;34577;-68
2023/04/05 01:27:32;;;;;;;7.25;4.50;;;;;;;-146.25;92.63;52246.53;2052464;28;32482;-69
2023/04/05 01:29:03;;;;;;;9.55;4.68;;;;;;;-146.25;92.92;52248.56;2055153;28;20043;-69
2023/04/05 01:30:37;;;;;;;8.57;4.40;;;;;;;-146.25;93.54;52274.94;2071357;28;20050;-69
2023/04/05 01:31:46;;;;;;;8.48;4.47;;;;;;;-146.25;92.81;52240.47;2071966;28;31466;-68
2023/04/05 01:33:35;;;;;;;8.82;4.43;;;;;;;-146.25;92.39;52248.56;2071116;28;26543;-69
2023/04/05 01:35:08;;;;;;;8.43;4.65;;;;;;;-146.25;92.83;52264.78;2054198;28;20059;-69
2023/04/05 01:36:42;;;;;;;5.90;4.05;;;;;;;-146.25;92.99;52228.28;2065874;28;20042;-68
2023/04/05 01:37:48;;;;;;;6.63;4.35;;;;;;;-146.25;92.40;52256.69;2071075;28;32371;-69
2023/04/05 01:38:53;;;;;;;6.40;4.18;;;;;;;-146.25;91.92;52266.81;2067979;28;20098;-69
2023/04/05 01:39:58;;;;;;;7.45;4.47;;;;;;;-146.25;92.13;52248.56;2064781;28;20039;-69
2023/04/05 01:41:00;;;;;;;9.70;4.65;;;;;;;-146.25;92.49;52236.41;2055572;28;26219;-69
2023/04/05 01:42:03;;;;;;;7.95;4.55;;;;;;;-146.25;91.92;52260.72;2063529;28;34368;-69
2023/04/05 01:43:15;;;;;;;9.48;4.85;;;;;;;-146.25;92.65;52254.66;2070946;28;34510;-69
2023/04/05 01:44:21;;;;;;;9.57;4.97;;;;;;;-146.25;92.79;52260.72;2073279;28;20042;-69
2023/04/05 01:45:23;;;;;;;8.30;4.70;;;;;;;-146.25;92.16;52266.81;2079675;28;28158;-69
2023/04/05 01:46:25;;;;;;;7.32;4.40;;;;;;;-146.25;92.80;52289.13;2080192;28;26676;-68
2023/04/05 01:47:27;;;;;;;6.57;4.85;;;;;;;-146.25;92.68;52258.72;2079966;28;29161;-69
2023/04/05 01:48:33;;;;;;;8.27;4.50;;;;;;;-146.25;92.70;52248.56;2071441;28;20169;-69
2023/04/05 01:49:35;;;;;;;7.35;4.88;;;;;;;-146.25;93.20;52276.97;2064390;28;20687;-68
2023/04/05 01:50:39;;;;;;;8.23;4.88;;;;;;;-146.25;93.30;52242.50;2063713;28;33734;-68
2023/04/05 01:51:41;;;;;;;8.98;4.43;;;;;;;-146.25;92.79;52268.84;2071809;28;24552;-69
2023/04/05 01:52:43;;;;;;;9.82;5.18;;;;;;;-146.25;92.86;52244.50;2070800;28;20050;-69
2023/04/05 01:53:45;;;;;;;6.45;4.60;;;;;;;-146.25;92.69;52283.03;2071273;28;29108;-69
2023/04/05 01:54:48;;;;;;;8.05;4.88;;;;;;;-146.25;92.78;52250.59;2071312;28;20042;-69
2023/04/05 01:55:49;;;;;;;7.45;4.25;;;;;;;-146.25;92.87;52268.84;2071969;28;20108;-69
2023/04/05 01:56:56;;;;;;;9.18;4.88;;;;;;;-146.25;92.30;52272.91;2071546;28;20994;-69
2023/04/05 01:58:00;;;;;;;10.57;4.85;;;;;;;-146.25;92.54;52283.03;2071062;28;20080;-69
2023/04/05 01:59:04;;;;;;;9.00;4.28;;;;;;;-146.25;92.81;52250.59;2071739;28;20050;-68
2023/04/05 02:00:07;;;;;;;7.68;4.35;;;;;;;-146.25;93.10;52276.97;2079070;28;31780;-69
2023/04/05 02:01:13;;;;;;;10.25;5.00;;;;;;;-146.25;92.65;52303.31;2072270;28;20043;-69
2023/04/05 02:02:19;;;;;;;7.53;4.82;;;;;;;-146.25;93.03;52293.19;2063391;28;26315;-68
2023/04/05 02:03:23;;;;;;;7.47;4.53;;;;;;;-146.25;93.06;52254.66;2054938;28;20039;-69
2023/04/05 02:04:26;;;;;;;7.82;4.60;;;;;;;-146.25;93.18;52258.72;2056059;28;20065;-69
2023/04/05 02:05:28;;;;;;;6.70;4.57;;;;;;;-146.25;92.92;52315.47;2071065;28;20022;-68
2023/04/05 02:06:31;;;;;;;7.00;4.45;;;;;;;-146.25;93.18;52254.66;2062956;28;20042;-69
2023/04/05 02:07:35;;;;;;;10.32;4.97;;;;;;;-146.25;93.27;52264.78;2063212;28;20939;-69
2023/04/05 02:08:37;;;;;;;10.13;5.32;;;;;;;-146.25;93.65;52291.16;2062678;28;29384;-69
2023/04/05 02:09:39;;;;;;;7.57;5.03;;;;;;;-146.25;93.18;52254.66;2063646;28;20042;-68
2023/04/05 02:10:41;;;;;;;10.07;5.15;;;;;;;-146.25;93.87;52256.69;2063087;28;20035;-69
2023/04/05 02:11:46;;;;;;;9.07;5.00;;;;;;;-146.25;94.22;52238.44;2054762;28;20047;-69
2023/04/05 02:12:48;;;;;;;10.13;5.45;;;;;;;-146.25;94.62;52274.94;2055356;28;31179;-69
2023/04/05 02:13:49;;;;;;;8.73;4.95;;;;;;;-146.25;94.15;52254.66;2072314;28;20034;-69
2023/04/05 02:14:51;;;;;;;8.70;5.00;;;;;;;-146.25;94.32;52287.09;2071797;28;25869;-69
2023/04/05 02:15:53;;;;;;;8.55;5.38;;;;;;;-146.25;94.32;52272.91;2062893;28;22528;-69
2023/04/05 02:16:55;;;;;;;11.43;6.07;;;;;;;-146.25;94.51;52252.63;2063493;28;20141;-69
2023/04/05 02:18:01;;;;;;;8.40;5.38;;;;;;;-146.25;95.08;52242.50;2063458;28;20952;-69
2023/04/05 02:19:02;;;;;;;9.13;5.13;;;;;;;-146.25;94.89;52272.91;2047155;28;20044;-69
2023/04/05 02:20:11;;;;;;;8.75;5.05;;;;;;;-146.25;94.29;52232.34;2055193;28;30183;-69
2023/04/05 02:21:15;;;;;;;11.15;5.07;;;;;;;-146.25;94.39;52236.41;2062392;28;29506;-69
2023/04/05 02:22:18;;;;;;;9.45;5.35;;;;;;;-146.25;94.21;52291.16;2063469;28;38306;-69
2023/04/05 02:23:20;;;;;;;8.65;4.97;;;;;;;-146.25;94.40;52281.00;2063193;28;20042;-69
2023/04/05 02:24:22;;;;;;;8.60;4.60;;;;;;;-146.25;94.84;52307.38;2063586;28;27474;-69
2023/04/05 02:25:26;;;;;;;9.20;4.68;;;;;;;-146.25;94.20;52295.19;2062608;28;29334;-70
2023/04/05 02:26:29;;;;;;;9.57;4.88;;;;;;;-146.25;93.90;52283.03;2065643;28;20874;-70
2023/04/05 02:27:34;;;;;;;7.78;5.35;;;;;;;-146.25;94.16;52250.59;2064630;28;20089;-69
2023/04/05 02:28:38;;;;;;;7.82;4.95;;;;;;;-146.25;94.13;52303.31;2064399;28;23545;-68
2023/04/05 02:29:39;;;;;;;8.00;4.75;;;;;;;-146.25;94.19;52262.75;2064439;28;32017;-70
2023/04/05 02:30:41;;;;;;;7.88;5.05;;;;;;;-146.25;94.29;52244.50;2072809;28;36128;-69
2023/04/05 02:31:44;;;;;;;9.50;5.22;;;;;;;-146.25;94.41;52297.22;2064513;28;20951;-69
2023/04/05 02:32:50;;;;;;;8.15;5.40;;;;;;;-146.25;94.21;52240.47;2064553;28;20920;-70
2023/04/05 02:33:53;;;;;;;7.68;4.78;;;;;;;-146.25;94.40;52281.00;2073078;28;23687;-69
2023/04/05 02:34:55;;;;;;;6.78;5.05;;;;;;;-146.25;94.49;52250.59;2073025;28;31072;-69
2023/04/05 02:35:57;;;;;;;9.05;5.03;;;;;;;-146.25;94.02;52283.03;2064375;28;20047;-70
2023/04/05 02:37:01;;;;;;;6.57;4.50;;;;;;;-146.25;94.29;52297.22;2063950;28;34905;-70
2023/04/05 02:38:06;;;;;;;9.13;5.07;;;;;;;-146.25;94.42;52242.50;2063940;28;31911;-70
2023/04/05 02:39:08;;;;;;;10.23;5.38;;;;;;;-146.25;94.10;52222.22;2064514;28;24745;-70
2023/04/05 02:40:14;;;;;;;8.85;4.88;;;;;;;-146.25;94.48;52244.50;2073210;28;20061;-70
2023/04/05 02:41:16;;;;;;;8.73;4.90;;;;;;;-146.25;94.92;52291.16;2073038;28;20174;-70
2023/04/05 02:42:18;;;;;;;8.80;5.07;;;;;;;-146.25;95.08;52250.59;2072598;28;30325;-70
2023/04/05 02:43:23;;;;;;;8.82;5.18;;;;;;;-146.25;94.65;52264.78;2064366;28;20055;-70
2023/04/05 02:44:25;;;;;;;7.47;5.07;;;;;;;-146.25;94.35;52289.13;2055795;28;32418;-70
2023/04/05 02:45:27;;;;;;;9.27;5.35;;;;;;;-146.25;94.35;52258.72;2056609;28;20812;-70
2023/04/05 02:46:33;;;;;;;7.40;4.47;;;;;;;-146.25;94.40;52311.44;2064442;28;20809;-70
2023/04/05 02:47:35;;;;;;;8.27;5.00;;;;;;;-146.25;94.19;52303.31;2065271;28;20034;-70
2023/04/05 02:48:37;;;;;;;9.13;4.80;;;;;;;-146.25;94.09;52258.72;2073181;28;22261;-69
2023/04/05 02:49:42;;;;;;;7.75;5.22;;;;;;;-146.25;94.41;52295.19;2056551;28;20121;-71
2023/04/05 02:50:48;;;;;;;8.57;5.38;;;;;;;-146.25;94.52;52268.84;2057513;28;20055;-69
2023/04/05 02:51:51;;;;;;;9.68;4.88;;;;;;;-146.25;94.52;52291.16;2072622;28;20764;-70
2023/04/05 02:52:54;;;;;;;11.80;5.40;;;;;;;-146.25;94.49;52283.03;2072557;28;20050;-69
2023/04/05 02:53:56;;;;;;;7.95;4.80;;;;;;;-146.25;94.48;52254.66;2064364;28;20070;-72
2023/04/05 02:54:59;;;;;;;13.32;5.85;;;;;;;-146.25;94.69;52303.31;2056375;28;20222;-69
2023/04/05 02:56:05;;;;;;;9.00;5.50;;;;;;;-146.25;94.67;52315.47;2056914;28;20047;-70
2023/04/05 02:57:10;;;;;;;11.48;5.13;;;;;;;-146.25;95.00;52295.19;2056896;28;20058;-71
2023/04/05 02:58:22;;;;;;;9.45;5.30;;;;;;;-146.25;95.06;52311.44;2065708;28;20047;-71
2023/04/05 02:59:24;;;;;;;7.18;4.53;;;;;;;-146.25;94.97;52291.16;2063054;28;20237;-71
2023/04/05 03:00:28;;;;;;;7.95;4.85;;;;;;;-146.25;94.75;52289.13;2064036;28;27293;-70
2023/04/05 03:01:35;;;;;;;9.07;5.40;;;;;;;-146.25;94.94;52266.81;2064052;28;20069;-70
2023/04/05 03:02:38;;;;;;;9.93;5.15;;;;;;;-146.25;95.03;52299.25;2064125;28;20047;-70
2023/04/05 03:03:42;;;;;;;10.60;5.90;;;;;;;-146.25;95.05;52295.19;2064093;28;32647;-70
2023/04/05 03:04:44;;;;;;;11.02;5.70;;;;;;;-146.25;95.41;52248.56;2064432;28;20829;-70
2023/04/05 03:06:10;;;;;;;11.30;5.93;;;;;;;-146.25;95.28;52248.56;2056659;28;20777;-70
2023/04/05 03:07:17;;;;;;;9.48;4.90;;;;;;;-146.25;95.54;52266.81;2059517;28;20042;-70
2023/04/05 03:08:22;;;;;;;10.02;5.38;;;;;;;-146.25;95.58;52289.13;2056994;28;20036;-70
2023/04/05 03:09:33;;;;;;;8.55;4.90;;;;;;;-146.25;95.20;52258.72;2057696;28;20043;-72
2023/04/05 03:10:43;;;;;;;9.88;5.47;;;;;;;-146.25;95.69;52291.16;2057187;28;20043;-69
2023/04/05 03:11:49;;;;;;;9.52;5.22;;;;;;;-146.25;95.54;52258.72;2057118;28;20414;-71
2023/04/05 03:12:51;;;;;;;9.55;5.60;;;;;;;-146.25;95.30;52289.13;2056470;28;20055;-70
2023/04/05 03:13:57;;;;;;;11.52;5.40;;;;;;;-146.25;95.71;52291.16;2064431;28;20136;-70
2023/04/05 03:15:10;;;;;;;10.18;5.43;;;;;;;-146.25;96.05;52291.16;2065998;28;20223;-69
2023/04/05 03:16:15;;;;;;;14.35;5.65;;;;;;;-146.25;95.89;52309.41;2064503;28;20932;-70
2023/04/05 03:17:18;;;;;;;10.57;5.22;;;;;;;-146.25;96.07;52262.75;2064517;28;20123;-71
2023/04/05 03:18:30;;;;;;;10.43;5.88;;;;;;;-146.25;96.35;52270.88;2073066;28;20132;-72
2023/04/05 03:19:39;;;;;;;10.80;5.55;;;;;;;-146.25;96.15;52246.53;2073254;28;20116;-69
2023/04/05 03:20:49;;;;;;;10.00;5.32;;;;;;;-146.25;96.17;52274.94;2064119;28;20078;-69
2023/04/05 03:21:56;;;;;;;8.18;5.20;;;;;;;-146.25;95.77;52281.00;2064474;28;20197;-70
2023/04/05 03:23:07;;;;;;;11.05;5.50;;;;;;;-146.25;95.78;52287.09;2057473;28;20047;-70
2023/04/05 03:24:12;;;;;;;10.52;6.00;;;;;;;-146.25;95.77;52295.19;2056678;28;20189;-69
2023/04/05 03:25:16;;;;;;;11.93;6.03;;;;;;;-146.25;95.76;52270.88;2056824;28;20043;-71
2023/04/05 03:26:21;;;;;;;8.57;5.45;;;;;;;-146.25;95.93;52270.88;2056668;28;20078;-71
2023/04/05 03:27:27;;;;;;;9.05;5.93;;;;;;;-146.25;95.94;52274.94;2056628;28;20042;-71
2023/04/05 03:28:36;;;;;;;9.90;5.07;;;;;;;-146.25;96.18;52276.97;2057176;28;20043;-71
2023/04/05 03:29:41;;;;;;;11.40;6.13;;;;;;;-146.25;96.09;52283.03;2056632;28;20940;-71
2023/04/05 03:30:49;;;;;;;10.85;5.80;;;;;;;-146.25;96.22;52274.94;2064417;28;20039;-70
2023/04/05 03:31:53;;;;;;;10.00;4.93;;;;;;;-146.25;96.11;52295.19;2064609;28;20035;-71
2023/04/05 03:33:00;;;;;;;8.43;4.93;;;;;;;-146.25;96.32;52260.72;2064020;28;20102;-71
2023/04/05 03:34:12;;;;;;;8.52;5.32;;;;;;;-146.25;96.28;52297.22;2066126;28;20169;-71
2023/04/05 03:35:19;;;;;;;8.70;5.18;;;;;;;-146.25;96.46;52323.59;2064005;28;20046;-71
2023/04/05 03:36:21;;;;;;;11.52;5.97;;;;;;;-146.25;96.56;52270.88;2047875;28;20490;-71
2023/04/05 03:37:26;;;;;;;10.55;5.25;;;;;;;-146.25;96.23;52287.09;2049504;28;20047;-71
2023/04/05 03:38:36;;;;;;;9.88;5.65;;;;;;;-146.25;96.31;52299.25;2057003;28;20054;-70
2023/04/05 03:39:47;;;;;;;10.15;5.65;;;;;;;-146.25;96.49;52276.97;2065771;28;20031;-70
2023/04/05 03:40:51;;;;;;;10.25;5.65;;;;;;;-146.25;96.43;52276.97;2055996;28;20078;-71
2023/04/05 03:41:53;;;;;;;7.43;5.28;;;;;;;-146.25;96.35;52305.34;2056452;28;20042;-70
2023/04/05 03:42:54;;;;;;;10.68;5.40;;;;;;;-146.25;96.35;52264.78;2063995;28;20054;-69
2023/04/05 03:43:58;;;;;;;9.73;5.30;;;;;;;-146.25;96.21;52291.16;2056087;28;20043;-69
2023/04/05 03:45:00;;;;;;;9.52;5.35;;;;;;;-146.25;96.36;52311.44;2063877;28;34872;-70
2023/04/05 03:46:02;;;;;;;9.45;5.13;;;;;;;-146.25;96.25;52276.97;2063867;28;20888;-70
2023/04/05 03:47:05;;;;;;;10.45;5.95;;;;;;;-146.25;96.28;52270.88;2056200;28;20043;-71
2023/04/05 03:48:07;;;;;;;10.05;6.25;;;;;;;-146.25;96.53;52262.75;2047236;28;32853;-70
2023/04/05 03:49:09;;;;;;;9.57;5.78;;;;;;;-146.25;96.38;52309.41;2055784;28;20051;-69
2023/04/05 03:50:10;;;;;;;11.48;6.53;;;;;;;-146.25;96.30;52291.16;2055973;28;20066;-72
2023/04/05 03:51:14;;;;;;;11.02;6.53;;;;;;;-146.25;96.38;52291.16;2063904;28;20924;-71
2023/04/05 03:52:16;;;;;;;11.00;6.18;;;;;;;-146.25;96.46;52287.09;2063948;28;20039;-71
2023/04/05 03:53:19;;;;;;;8.85;5.90;;;;;;;-146.25;96.67;52291.16;2063356;28;20097;-71
2023/04/05 03:54:24;;;;;;;10.38;5.97;;;;;;;-146.25;96.80;52313.44;2056530;28;20129;-71
2023/04/05 03:55:30;;;;;;;10.52;5.85;;;;;;;-146.25;96.89;52295.19;2056584;28;20078;-71
2023/04/05 03:56:37;;;;;;;11.07;5.60;;;;;;;-146.25;97.02;52266.81;2048475;28;20043;-71
2023/04/05 03:57:47;;;;;;;13.18;6.55;;;;;;;-146.25;97.14;52264.78;2051483;28;20040;-71
2023/04/05 03:58:57;;;;;;;;;;;;;;;-146.25;97.21;52283.03;2057702;28;20042;-71
2023/04/05 04:00:12;;;;;;;7.97;4.90;;;;;;;-146.25;97.33;52309.41;2056476;28;20800;-71
2023/04/05 04:01:15;;;;;;;9.05;5.15;;;;;;;-146.25;97.27;52307.38;2065203;28;20367;-70
2023/04/05 04:02:17;;;;;;;11.63;6.13;;;;;;;-146.25;97.33;52250.59;2072825;28;20043;-71
2023/04/05 04:03:22;;;;;;;9.63;5.50;;;;;;;-146.25;97.40;52276.97;2063775;28;20916;-71
2023/04/05 04:04:26;;;;;;;9.63;5.60;;;;;;;-146.25;97.48;52309.41;2064206;28;20030;-71
2023/04/05 04:05:30;;;;;;;9.63;5.78;;;;;;;-146.25;97.87;52268.84;2056467;28;20173;-71
2023/04/05 04:06:32;;;;;;;9.45;5.80;;;;;;;-146.25;97.79;52291.16;2064380;28;20039;-71
2023/04/05 04:07:34;;;;;;;11.20;6.38;;;;;;;-146.25;97.85;52319.53;2071956;28;25634;-70
2023/04/05 04:08:36;;;;;;;10.27;5.82;;;;;;;-146.25;98.04;52264.78;2063874;28;20881;-71
2023/04/05 04:09:38;;;;;;;11.18;6.20;;;;;;;-146.25;98.14;52297.22;2047339;28;28972;-71
2023/04/05 04:10:42;;;;;;;10.52;6.28;;;;;;;-146.25;98.15;52311.44;2056425;28;20122;-71
2023/04/05 04:11:53;;;;;;;11.55;6.13;;;;;;;-146.25;98.39;52285.06;2064799;28;20106;-71
2023/04/05 04:12:56;;;;;;;9.57;5.72;;;;;;;-146.25;98.15;52230.31;2063895;28;20039;-71
2023/04/05 04:14:02;;;;;;;10.35;6.35;;;;;;;-146.25;98.34;52303.31;2064379;28;20043;-71
2023/04/05 04:15:22;;;;;;;11.18;6.18;;;;;;;-146.25;98.32;52244.50;2071997;28;20078;-71
2023/04/05 04:16:39;;;;;;;10.38;5.80;;;;;;;-146.25;98.46;52295.19;2063611;28;20090;-69
2023/04/05 04:18:01;;;;;;;10.27;6.28;;;;;;;-146.25;98.45;52264.78;2066356;28;20073;-71
2023/04/05 04:19:23;;;;;;;13.85;6.38;;;;;;;-146.25;98.64;52297.22;2063877;28;20820;-71
2023/04/05 04:20:55;;;;;;;10.82;5.68;;;;;;;-146.25;98.44;52266.81;2047421;28;20086;-71
2023/04/05 04:22:19;;;;;;;7.20;4.70;;;;;;;-146.25;98.28;52303.31;2043787;28;20166;-71
2023/04/05 04:23:44;;;;;;;12.57;5.90;;;;;;;-146.25;98.41;52276.97;2056474;28;20054;-71
2023/04/05 04:25:09;;;;;;;13.48;6.20;;;;;;;-146.25;98.14;52270.88;2072994;28;20046;-71
2023/04/05 04:26:39;;;;;;;9.27;5.90;;;;;;;-146.25;98.14;52276.97;2070986;28;20285;-71
2023/04/05 04:28:08;;;;;;;11.35;5.63;;;;;;;-146.25;98.30;52222.22;2071282;28;20141;-71
2023/04/05 04:29:32;;;;;;;9.70;6.20;;;;;;;-146.25;98.31;52303.31;2063360;28;20050;-72
2023/04/05 04:30:57;;;;;;;13.57;5.50;;;;;;;-146.25;98.72;52256.69;2070197;28;20046;-71
2023/04/05 04:32:25;;;;;;;8.90;5.85;;;;;;;-146.25;98.79;52325.63;2054896;28;20142;-72
2023/04/05 04:33:50;;;;;;;9.65;5.65;;;;;;;-146.25;98.81;52303.31;2072490;28;20077;-72
2023/04/05 04:35:13;;;;;;;10.70;5.78;;;;;;;-146.25;98.80;52319.53;2063614;28;20047;-71
2023/04/05 04:36:41;;;;;;;10.05;5.70;;;;;;;-146.25;98.74;52317.50;2063456;28;20055;-72
2023/04/05 04:38:17;;;;;;;8.85;5.50;;;;;;;-146.25;99.13;52278.97;2059206;28;20193;-72
2023/04/05 04:39:43;;;;;;;10.35;5.70;;;;;;;-146.25;99.12;52301.28;2057278;28;20114;-72
2023/04/05 04:40:57;;;;;;;13.32;5.97;;;;;;;-146.25;98.76;52307.38;2066114;28;20043;-71
2023/04/05 04:42:10;;;;;;;8.55;5.38;;;;;;;-146.25;98.91;52254.66;2063493;28;20062;-71
2023/04/05 04:43:36;;;;;;;10.15;6.13;;;;;;;-146.25;98.98;52283.03;2066799;28;20095;-72
2023/04/05 04:45:03;;;;;;;9.10;5.30;;;;;;;-146.25;99.31;52262.75;2063149;28;20051;-72
2023/04/05 04:46:17;;;;;;;9.60;5.40;;;;;;;-146.25;99.13;52311.44;2063871;28;20923;-72
2023/04/05 04:47:50;;;;;;;11.57;5.53;;;;;;;-146.25;99.22;52270.88;2065624;28;20042;-72
2023/04/05 04:49:12;;;;;;;10.18;5.60;;;;;;;-146.25;99.21;52291.16;2063528;28;20035;-71
2023/04/05 04:50:20;;;;;;;10.35;5.78;;;;;;;-146.25;99.28;52281.00;2068679;28;20137;-72
2023/04/05 04:51:22;;;;;;;11.32;6.38;;;;;;;-146.25;99.51;52281.00;2072164;28;35375;-72
2023/04/05 04:52:24;;;;;;;11.75;6.40;;;;;;;-146.25;99.69;52287.09;2072240;28;20865;-72
2023/04/05 04:53:25;;;;;;;10.25;5.63;;;;;;;-146.25;99.70;52283.03;2063277;28;32968;-72
2023/04/05 04:54:27;;;;;;;10.13;6.10;;;;;;;-146.25;99.50;52266.81;2063325;28;31636;-72
2023/04/05 04:55:29;;;;;;;9.25;5.43;;;;;;;-146.25;99.36;52297.22;2063219;28;31944;-71
2023/04/05 04:56:31;;;;;;;9.15;5.90;;;;;;;-146.25;99.77;52266.81;2072225;28;33894;-72
2023/04/05 04:57:34;;;;;;;8.65;5.28;;;;;;;-146.25;99.85;52291.16;2063313;28;20114;-71
2023/04/05 04:58:36;;;;;;;11.98;6.25;;;;;;;-146.25;99.71;52293.19;2055461;28;32823;-70
2023/04/05 04:59:40;;;;;;;10.23;6.03;;;;;;;-146.25;99.46;52278.97;2064188;28;20046;-69
2023/04/05 05:00:43;;;;;;;9.05;5.68;;;;;;;-146.25;99.64;52283.03;2063605;28;20050;-69
2023/04/05 05:01:45;;;;;;;11.20;6.32;;;;;;;-146.25;99.59;52325.63;2055045;28;35476;-72
2023/04/05 05:02:47;;;;;;;10.73;6.50;;;;;;;-146.25;99.44;52264.78;2063526;28;33393;-69
2023/04/05 05:03:51;;;;;;;9.68;6.30;;;;;;;-146.25;99.20;52266.81;2063659;28;20039;-71
2023/04/05 05:05:00;;;;;;;9.45;5.82;;;;;;;-146.25;99.22;52270.88;2064967;28;20813;-71
2023/04/05 05:06:02;;;;;;;9.57;5.57;;;;;;;-146.25;99.33;52335.75;2070717;28;35475;-71
2023/04/05 05:07:05;;;;;;;12.25;6.55;;;;;;;-146.25;99.29;52313.44;2063709;28;20805;-71
2023/04/05 05:08:07;;;;;;;10.68;6.20;;;;;;;-146.25;99.24;52323.59;2055457;28;20058;-71